Date,TemperatureHighF,TemperatureAvgF,TemperatureLowF,DewpointHighF,DewpointAvgF,DewpointLowF,HumidityHigh,HumidityAvg,HumidityLow,PressureMaxIn,PressureMinIn,WindSpeedMaxMPH,WindSpeedAvgMPH,GustSpeedMaxMPH,PrecipitationSumIn
2013-1-1,32.1,25.0,16.8,23.1,15.2,8.1,73,66,60,30.31,30.15,19,4,19,0.00
2013-1-2,33.6,23.5,12.0,15.9,10.5,1.4,64,58,46,30.39,30.28,16,2,16,0.00
2013-1-3,32.7,22.4,13.4,16.0,8.9,3.1,63,56,48,30.39,30.19,16,5,16,0.00
2013-1-4,37.5,28.5,23.1,18.1,11.8,7.2,54,49,44,30.21,30.13,17,3,17,0.00
2013-1-5,37.5,27.0,17.4,21.0,14.0,6.7,65,58,49,30.34,30.17,13,2,13,0.00
2013-1-6,38.4,29.6,17.4,19.0,14.7,7.3,68,54,44,30.17,29.95,14,2,14,0.00
2013-1-7,40.2,32.2,24.4,23.6,18.4,12.1,63,56,49,30.03,29.76,11,1,11,0.00
2013-1-8,45.1,38.1,31.8,23.6,19.4,15.7,56,47,31,30.10,29.77,22,5,22,0.00
2013-1-9,52.3,40.6,30.3,29.0,23.1,16.4,59,50,38,30.08,29.80,12,1,12,0.00
2013-1-10,43.5,32.0,19.5,27.5,20.1,10.3,71,61,50,29.82,29.63,18,4,18,0.00
2013-1-11,19.5,11.6,9.1,10.3,4.1,1.8,75,71,66,30.20,29.81,14,4,14,0.00
2013-1-12,15.6,9.8,2.8,6.6,2.1,-5.1,73,70,65,30.22,30.17,11,2,11,0.00
2013-1-13,18.6,11.1,5.5,8.1,2.3,-2.2,72,67,61,30.27,30.21,12,3,12,0.00
2013-1-14,17.7,12.4,6.9,6.4,2.4,-2.1,68,64,58,30.24,30.08,18,5,18,0.00
2013-1-15,30.0,24.6,16.8,19.0,14.5,-15.3,69,65,16,30.21,30.08,22,8,22,0.00
2013-1-16,38.4,31.0,26.0,23.6,18.3,14.8,63,59,53,30.39,30.17,19,5,19,0.00
2013-1-17,38.6,30.1,23.5,24.3,17.8,13.5,65,60,54,30.42,30.10,18,4,18,0.00
2013-1-18,48.3,37.0,30.5,26.4,21.1,16.7,58,52,41,30.12,29.97,16,3,16,0.00
2013-1-19,39.3,32.9,23.0,24.4,19.6,14.4,72,58,46,30.33,30.10,14,3,14,0.00
2013-1-20,33.2,22.6,16.3,20.4,13.2,7.8,71,67,58,30.52,30.18,13,4,13,0.00
2013-1-21,29.3,18.8,12.7,18.1,10.1,4.9,73,69,61,30.36,30.09,12,1,12,0.00
2013-1-22,41.7,29.1,13.4,24.9,16.7,6.3,75,60,50,30.17,30.09,11,1,11,0.00
2013-1-23,30.3,21.9,16.5,16.1,12.2,8.4,71,66,55,30.28,30.01,11,2,11,0.00
2013-1-24,51.9,34.6,19.4,30.0,20.4,11.0,72,57,40,30.19,29.95,14,1,14,0.00
2013-1-25,47.3,34.6,23.5,30.9,22.7,14.6,72,62,52,30.18,30.01,10,0,10,0.00
2013-1-26,50.7,40.2,32.3,31.0,25.8,21.9,67,56,46,30.02,29.79,10,0,10,0.00
2013-1-27,35.7,31.6,27.6,30.1,25.2,19.8,82,77,66,29.95,29.80,7,0,7,0.04
2013-1-28,31.8,27.9,21.7,25.4,20.5,13.5,82,74,60,29.95,29.83,8,0,8,0.00
2013-1-29,26.9,18.9,7.8,18.6,10.0,-1.2,74,68,59,30.25,29.82,15,2,15,0.00
2013-1-30,31.4,22.1,8.9,23.5,15.1,1.0,80,74,67,30.13,29.91,18,3,18,0.00
2013-1-31,27.5,13.5,3.9,21.2,6.8,-2.5,79,74,70,30.29,30.09,18,3,18,0.00